createdAt,value
2018-12-06T00:00:43.844Z,16.50
2018-12-06T00:03:11.551Z,21.60
2018-12-06T00:05:39.126Z,19.03
2018-12-06T00:08:14.118Z,17.50
2018-12-06T00:10:42.849Z,17.10
2018-12-06T00:13:10.501Z,18.67
2018-12-06T00:15:38.334Z,18.97
2018-12-06T00:18:05.956Z,21.37
2018-12-06T00:20:33.595Z,18.70
2018-12-06T00:23:01.333Z,18.20
2018-12-06T00:26:03.718Z,20.03
2018-12-06T00:28:31.350Z,22.57
2018-12-06T00:31:03.761Z,20.87
2018-12-06T00:33:31.327Z,19.60
2018-12-06T00:35:58.869Z,19.63
2018-12-06T00:38:26.422Z,22.43
2018-12-06T00:40:53.935Z,23.60
2018-12-06T00:43:23.114Z,19.80
2018-12-06T00:45:50.729Z,19.93
2018-12-06T00:48:18.333Z,22.73
2018-12-06T00:50:45.870Z,20.40
2018-12-06T00:53:13.533Z,22.03
2018-12-06T00:55:41.210Z,25.97
2018-12-06T00:58:08.798Z,19.27
2018-12-06T01:00:36.283Z,24.60
2018-12-06T01:03:05.180Z,21.97
2018-12-06T01:05:32.713Z,21.77
2018-12-06T01:08:00.354Z,26.17
2018-12-06T01:10:28.209Z,21.23
2018-12-06T01:12:58.089Z,26.87
2018-12-06T01:15:25.793Z,29.03
2018-12-06T01:17:56.419Z,20.77
2018-12-06T01:20:25.254Z,28.10
2018-12-06T01:22:52.757Z,25.90
2018-12-06T01:25:20.438Z,23.20
2018-12-06T01:27:48.158Z,22.70
2018-12-06T01:30:15.671Z,23.37
2018-12-06T01:32:43.220Z,25.83
2018-12-06T01:35:10.869Z,26.00
2018-12-06T01:37:38.494Z,28.20
2018-12-06T01:40:06.151Z,25.47
2018-12-06T01:42:33.679Z,24.17
2018-12-06T01:45:01.229Z,24.77
2018-12-06T01:47:28.802Z,25.17
2018-12-06T01:49:56.442Z,23.63
2018-12-06T01:52:24.158Z,28.40
2018-12-06T01:54:51.773Z,24.70
2018-12-06T01:57:21.121Z,27.10
2018-12-06T01:59:48.722Z,32.20
2018-12-06T02:02:16.397Z,24.43
2018-12-06T02:04:44.032Z,29.73
2018-12-06T02:07:11.774Z,28.40
2018-12-06T02:09:39.292Z,26.47
2018-12-06T02:12:06.973Z,26.23
2018-12-06T02:14:34.783Z,29.40
2018-12-06T02:17:02.371Z,27.43
2018-12-06T02:19:29.958Z,27.80
2018-12-06T02:21:57.572Z,28.17
2018-12-06T02:24:25.134Z,27.33
2018-12-06T02:26:52.794Z,29.63
2018-12-06T02:29:20.878Z,26.53
2018-12-06T02:31:49.046Z,25.73
2018-12-06T02:34:17.858Z,27.10
2018-12-06T02:36:45.519Z,26.00
2018-12-06T02:39:13.146Z,28.27
2018-12-06T02:41:40.725Z,26.77
2018-12-06T02:44:08.754Z,26.17
2018-12-06T02:46:36.391Z,27.53
2018-12-06T02:49:04.002Z,30.07
2018-12-06T02:51:31.737Z,29.93
2018-12-06T02:53:59.429Z,27.50
2018-12-06T02:56:27.056Z,30.80
2018-12-06T02:58:54.777Z,34.00
2018-12-06T03:04:46.586Z,29.30
2018-12-06T03:07:14.134Z,29.20
2018-12-06T03:09:41.679Z,30.80
2018-12-06T03:12:09.293Z,29.43
2018-12-06T03:14:36.913Z,33.97
2018-12-06T03:17:07.072Z,27.03
2018-12-06T03:19:34.803Z,27.17
2018-12-06T03:22:02.413Z,32.87
2018-12-06T03:24:30.056Z,27.60
2018-12-06T03:26:57.585Z,28.00
2018-12-06T03:29:25.378Z,33.80
2018-12-06T03:31:53.011Z,32.90
2018-12-06T03:34:20.777Z,24.33
2018-12-06T03:36:48.318Z,26.27
2018-12-06T03:39:16.967Z,27.00
2018-12-06T03:41:44.613Z,29.17
2018-12-06T03:44:12.121Z,30.07
2018-12-06T03:46:39.751Z,31.60
2018-12-06T03:49:07.377Z,34.00
2018-12-06T03:51:34.902Z,35.33
2018-12-06T03:54:02.501Z,30.47
2018-12-06T03:56:30.007Z,32.20
2018-12-06T03:58:57.518Z,34.53
2018-12-06T04:01:25.637Z,28.80
2018-12-06T04:03:53.432Z,32.53
2018-12-06T04:06:24.283Z,30.60
2018-12-06T04:08:51.871Z,32.03
2018-12-06T04:11:19.410Z,32.40
2018-12-06T04:13:46.925Z,27.13
2018-12-06T04:16:14.490Z,32.87
2018-12-06T04:18:42.030Z,31.50
2018-12-06T04:21:09.601Z,30.77
2018-12-06T04:23:37.110Z,35.37
2018-12-06T04:26:04.762Z,31.67
2018-12-06T04:28:32.271Z,35.53
2018-12-06T04:30:59.893Z,36.80
2018-12-06T04:33:29.426Z,37.23
2018-12-06T04:35:57.045Z,31.50
2018-12-06T04:38:25.949Z,35.10
2018-12-06T04:40:53.502Z,34.13
2018-12-06T04:43:21.134Z,34.30
2018-12-06T04:45:49.733Z,32.70
2018-12-06T04:48:21.907Z,30.27
2018-12-06T04:50:46.839Z,32.90
2018-12-06T04:53:14.645Z,33.20
2018-12-06T04:55:42.169Z,36.60
2018-12-06T04:58:09.668Z,38.87
2018-12-06T05:00:37.329Z,33.50
2018-12-06T05:03:05.023Z,37.90
2018-12-06T05:05:32.964Z,38.23
2018-12-06T05:08:00.628Z,34.60
2018-12-06T05:10:28.367Z,36.80
2018-12-06T05:12:55.947Z,35.20
2018-12-06T05:15:25.146Z,33.63
2018-12-06T05:17:52.695Z,37.83
2018-12-06T05:20:20.281Z,39.20
2018-12-06T05:22:47.916Z,36.13
2018-12-06T05:25:15.559Z,39.93
2018-12-06T05:27:48.041Z,42.43
2018-12-06T05:30:15.658Z,40.43
2018-12-06T05:32:43.282Z,37.97
2018-12-06T05:35:10.952Z,38.30
2018-12-06T05:37:38.573Z,39.03
2018-12-06T05:40:06.325Z,38.90
2018-12-06T05:42:33.887Z,39.33
2018-12-06T05:45:01.432Z,43.97
2018-12-06T05:47:28.984Z,38.17
2018-12-06T05:49:56.481Z,40.07
2018-12-06T05:52:24.104Z,43.10
2018-12-06T05:54:52.391Z,47.90
2018-12-06T05:57:20.092Z,39.97
2018-12-06T05:59:48.336Z,39.37
2018-12-06T06:02:15.907Z,43.37
2018-12-06T06:04:43.510Z,44.33
2018-12-06T06:07:11.337Z,44.33
2018-12-06T06:09:39.223Z,49.00
2018-12-06T06:12:06.989Z,44.07
2018-12-06T06:14:34.531Z,46.03
2018-12-06T06:17:02.101Z,50.37
2018-12-06T06:19:29.854Z,40.53
2018-12-06T06:21:57.508Z,39.53
2018-12-06T06:24:25.213Z,41.53
2018-12-06T06:26:52.770Z,41.40
2018-12-06T06:29:20.341Z,49.00
2018-12-06T06:31:47.894Z,42.83
2018-12-06T06:34:15.382Z,47.17
2018-12-06T06:36:43.329Z,48.60
2018-12-06T06:39:11.032Z,41.93
2018-12-06T06:41:39.045Z,44.27
2018-12-06T06:44:06.657Z,54.30
2018-12-06T06:46:34.194Z,50.73
2018-12-06T06:49:03.124Z,49.50
2018-12-06T06:51:30.655Z,45.33
2018-12-06T06:53:58.217Z,48.80
2018-12-06T06:56:25.814Z,50.17
2018-12-06T06:58:53.489Z,47.47
2018-12-06T07:01:21.169Z,55.83
2018-12-06T07:03:48.728Z,54.77
2018-12-06T07:06:16.847Z,53.00
2018-12-06T07:08:44.487Z,54.63
2018-12-06T07:11:12.044Z,56.60
2018-12-06T07:13:39.563Z,50.90
2018-12-06T07:16:07.249Z,59.50
2018-12-06T07:18:34.829Z,54.57
2018-12-06T07:21:02.385Z,56.57
2018-12-06T07:23:29.901Z,47.27
2018-12-06T07:25:57.471Z,52.93
2018-12-06T07:28:25.185Z,53.57
2018-12-06T07:30:52.940Z,54.73
2018-12-06T07:33:20.511Z,55.43
2018-12-06T07:35:48.445Z,53.43
2018-12-06T07:38:16.067Z,56.60
2018-12-06T07:40:43.775Z,52.50
2018-12-06T07:43:11.402Z,60.50
2018-12-06T07:45:39.170Z,55.73
2018-12-06T07:48:06.718Z,48.47
2018-12-06T07:50:34.310Z,55.70
2018-12-06T07:53:02.094Z,64.10
2018-12-06T07:55:29.913Z,58.27
2018-12-06T07:57:57.476Z,54.97
2018-12-06T08:00:25.027Z,55.50
2018-12-06T08:02:52.686Z,51.07
2018-12-06T08:05:20.389Z,64.17
2018-12-06T08:07:47.938Z,56.40
2018-12-06T08:10:15.713Z,62.43
2018-12-06T08:12:43.298Z,57.97
2018-12-06T08:15:11.083Z,61.03
2018-12-06T08:17:38.815Z,55.77
2018-12-06T08:20:07.169Z,60.63
2018-12-06T08:22:34.968Z,63.93
2018-12-06T08:25:02.629Z,59.50
2018-12-06T08:27:30.232Z,57.17
2018-12-06T08:29:58.054Z,62.10
2018-12-06T08:32:25.629Z,57.77
2018-12-06T08:34:53.519Z,63.43
2018-12-06T08:37:21.121Z,56.30
2018-12-06T08:39:48.625Z,59.73
2018-12-06T08:42:16.217Z,66.23
2018-12-06T08:44:43.761Z,55.70
2018-12-06T08:47:11.475Z,61.13
2018-12-06T08:49:39.039Z,60.63
2018-12-06T08:52:07.358Z,57.33
2018-12-06T08:54:35.203Z,65.43
2018-12-06T08:57:02.729Z,55.67
2018-12-06T08:59:30.449Z,64.10
2018-12-06T09:01:58.082Z,66.43
2018-12-06T09:04:25.739Z,63.40
2018-12-06T09:06:53.283Z,60.03
2018-12-06T09:09:20.820Z,67.20
2018-12-06T09:11:48.407Z,71.13
2018-12-06T09:14:16.440Z,76.60
2018-12-06T09:16:44.161Z,70.10
2018-12-06T09:19:11.775Z,76.80
2018-12-06T09:21:39.502Z,75.33
2018-12-06T09:24:07.378Z,73.57
2018-12-06T09:26:34.921Z,69.40
2018-12-06T09:29:02.558Z,80.53
2018-12-06T09:31:30.224Z,73.70
2018-12-06T09:34:06.699Z,80.37
2018-12-06T09:36:35.209Z,76.07
2018-12-06T09:39:05.194Z,80.53
2018-12-06T09:41:34.569Z,85.00
2018-12-06T09:44:02.502Z,95.50
2018-12-06T09:46:33.069Z,85.40
2018-12-06T09:49:02.062Z,83.23
2018-12-06T09:51:29.801Z,86.83
2018-12-06T09:53:57.364Z,87.03
2018-12-06T09:56:25.012Z,79.43
2018-12-06T09:58:52.744Z,84.63
2018-12-06T10:01:20.281Z,89.53
2018-12-06T10:03:47.886Z,84.83
2018-12-06T10:06:15.454Z,90.90
2018-12-06T10:08:43.057Z,85.90
2018-12-06T10:11:10.573Z,84.60
2018-12-06T10:13:38.169Z,90.40
2018-12-06T10:16:05.741Z,94.17
2018-12-06T10:18:33.344Z,89.00
2018-12-06T10:21:01.057Z,78.30
2018-12-06T10:23:29.051Z,93.07
2018-12-06T10:25:56.790Z,84.27
2018-12-06T10:28:24.552Z,89.03
2018-12-06T10:30:52.362Z,85.83
2018-12-06T10:33:20.038Z,84.17
2018-12-06T10:35:47.573Z,90.67
2018-12-06T10:38:15.184Z,83.90
2018-12-06T10:40:42.828Z,90.37
2018-12-06T10:43:10.460Z,75.63
2018-12-06T10:45:38.206Z,78.20
2018-12-06T10:48:05.715Z,80.07
2018-12-06T10:50:33.217Z,73.27
2018-12-06T10:53:00.902Z,79.67
2018-12-06T10:55:28.576Z,80.97
2018-12-06T10:57:56.433Z,87.87
2018-12-06T11:00:29.910Z,80.00
2018-12-06T11:03:03.342Z,80.33
2018-12-06T11:05:31.016Z,86.47
2018-12-06T11:07:58.953Z,72.63
2018-12-06T11:10:26.523Z,72.37
2018-12-06T11:12:54.116Z,76.80
2018-12-06T11:15:21.747Z,73.57
2018-12-06T11:17:49.309Z,74.83
2018-12-06T11:20:16.934Z,79.13
2018-12-06T11:22:45.005Z,78.30
2018-12-06T11:25:12.721Z,81.17
2018-12-06T11:27:40.285Z,85.07
2018-12-06T11:30:08.213Z,81.13
2018-12-06T11:32:35.949Z,95.43
2018-12-06T11:35:03.885Z,94.83
2018-12-06T11:37:31.455Z,81.70
2018-12-06T11:39:59.004Z,97.43
2018-12-06T11:42:26.603Z,97.97
2018-12-06T11:44:54.361Z,100.67
2018-12-06T11:47:21.908Z,92.13
2018-12-06T11:49:49.631Z,88.17
2018-12-06T11:52:17.196Z,87.17
2018-12-06T11:54:44.787Z,86.20
2018-12-06T11:57:12.582Z,93.13
2018-12-06T11:59:40.116Z,94.40
2018-12-06T12:02:10.144Z,82.13
2018-12-06T12:04:37.389Z,90.57
2018-12-06T12:07:05.184Z,85.67
2018-12-06T12:09:32.794Z,87.57
2018-12-06T12:12:00.333Z,84.67
2018-12-06T12:14:30.793Z,88.77
2018-12-06T12:16:58.353Z,74.97
2018-12-06T12:19:26.272Z,88.73
2018-12-06T12:21:53.934Z,92.47
2018-12-06T12:24:21.541Z,82.60
2018-12-06T12:26:49.069Z,85.33
2018-12-06T12:29:16.730Z,80.27
2018-12-06T12:31:44.385Z,87.17
2018-12-06T12:34:12.908Z,82.87
2018-12-06T12:36:41.038Z,83.10
2018-12-06T12:39:10.712Z,99.23
2018-12-06T12:41:39.053Z,82.60
2018-12-06T12:44:06.679Z,76.03
2018-12-06T12:46:34.425Z,71.23
2018-12-06T12:49:02.469Z,81.37
2018-12-06T12:51:29.986Z,85.40
2018-12-06T12:53:57.730Z,70.60
2018-12-06T12:56:25.297Z,68.50
2018-12-06T12:58:52.955Z,67.00
2018-12-06T13:01:20.509Z,59.23
2018-12-06T13:03:48.278Z,61.30
2018-12-06T13:06:15.831Z,58.50
2018-12-06T13:08:43.454Z,54.30
2018-12-06T13:11:11.303Z,48.23
2018-12-06T13:13:39.315Z,50.60
2018-12-06T13:16:07.079Z,50.53
2018-12-06T13:18:34.714Z,48.03
2018-12-06T13:21:02.589Z,49.03
2018-12-06T13:23:30.219Z,46.20
2018-12-06T13:25:57.810Z,42.20
2018-12-06T13:28:25.501Z,42.20
2018-12-06T13:30:53.187Z,43.47
2018-12-06T13:33:20.776Z,36.20
2018-12-06T13:35:48.366Z,42.90
2018-12-06T13:38:16.167Z,42.10
2018-12-06T13:40:43.719Z,38.73
2018-12-06T13:43:11.469Z,33.70
2018-12-06T13:45:39.098Z,33.27
2018-12-06T13:48:07.241Z,40.90
2018-12-06T13:50:35.862Z,37.03
2018-12-06T13:53:03.508Z,40.53
2018-12-06T13:55:31.181Z,37.87
2018-12-06T13:57:58.726Z,42.00
2018-12-06T14:00:26.622Z,38.37
2018-12-06T14:02:54.282Z,33.47
2018-12-06T14:05:21.850Z,34.70
2018-12-06T14:07:49.474Z,38.00
2018-12-06T14:10:17.146Z,40.83
2018-12-06T14:12:45.059Z,42.50
2018-12-06T14:15:12.874Z,35.90
2018-12-06T14:17:45.858Z,43.43
2018-12-06T14:20:13.401Z,42.07
2018-12-06T14:22:41.267Z,42.07
2018-12-06T14:25:09.185Z,41.33
2018-12-06T14:27:36.904Z,37.13
2018-12-06T14:30:05.366Z,44.07
2018-12-06T14:32:32.980Z,38.63
2018-12-06T14:35:00.562Z,43.70
2018-12-06T14:37:28.555Z,43.07
2018-12-06T14:39:56.231Z,38.00
2018-12-06T14:42:23.834Z,38.57
2018-12-06T14:44:51.455Z,41.00
2018-12-06T14:47:19.097Z,38.40
2018-12-06T14:49:46.875Z,37.10
2018-12-06T14:52:14.485Z,36.83
2018-12-06T14:54:42.253Z,41.27
2018-12-06T14:57:10.427Z,37.17
2018-12-06T14:59:37.994Z,38.10
2018-12-06T15:02:05.944Z,38.90
2018-12-06T15:04:34.025Z,37.13
2018-12-06T15:07:01.646Z,39.73
2018-12-06T15:09:29.601Z,41.53
2018-12-06T15:11:57.701Z,37.90
2018-12-06T15:14:25.709Z,42.30
2018-12-06T15:16:53.578Z,38.60
2018-12-06T15:19:21.444Z,45.00
2018-12-06T15:21:49.074Z,44.63
2018-12-06T15:24:17.849Z,37.63
2018-12-06T15:26:45.458Z,37.07
2018-12-06T15:29:13.076Z,36.47
2018-12-06T15:31:41.250Z,41.80
2018-12-06T15:34:08.899Z,36.60
2018-12-06T15:36:37.315Z,38.80
2018-12-06T15:39:06.976Z,38.93
2018-12-06T15:41:36.709Z,31.23
2018-12-06T15:44:04.473Z,33.67
2018-12-06T15:46:32.249Z,32.70
2018-12-06T15:48:59.766Z,31.97
2018-12-06T15:51:28.281Z,30.97
2018-12-06T15:53:57.034Z,31.27
2018-12-06T15:56:24.705Z,30.87
2018-12-06T15:58:52.675Z,31.40
2018-12-06T16:01:20.402Z,38.60
2018-12-06T16:03:48.014Z,34.80
2018-12-06T16:06:15.968Z,33.87
2018-12-06T16:08:43.666Z,35.27
2018-12-06T16:11:12.667Z,37.43
2018-12-06T16:13:40.896Z,41.33
2018-12-06T16:16:08.536Z,40.33
2018-12-06T16:18:36.062Z,38.93
2018-12-06T16:21:04.019Z,37.03
2018-12-06T16:23:31.590Z,34.77
2018-12-06T16:25:59.148Z,39.23
2018-12-06T16:28:26.685Z,36.87
2018-12-06T16:30:54.404Z,36.00
2018-12-06T16:33:21.960Z,33.57
2018-12-06T16:35:49.498Z,33.93
2018-12-06T16:38:17.066Z,34.57
2018-12-06T16:40:44.667Z,36.00
2018-12-06T16:43:12.277Z,34.43
2018-12-06T16:45:39.833Z,33.63
2018-12-06T16:48:07.377Z,37.47
2018-12-06T16:50:35.075Z,35.10
2018-12-06T16:53:02.693Z,36.03
2018-12-06T16:55:30.260Z,34.30
2018-12-06T16:57:57.924Z,32.80
2018-12-06T17:00:25.576Z,34.97
2018-12-06T17:02:53.099Z,38.20
2018-12-06T17:05:20.897Z,34.23
2018-12-06T17:07:48.582Z,34.57
2018-12-06T17:10:16.157Z,38.13
2018-12-06T17:12:43.971Z,39.10
2018-12-06T17:15:12.170Z,36.93
2018-12-06T17:17:39.770Z,36.00
2018-12-06T17:20:07.885Z,36.00
2018-12-06T17:22:35.559Z,37.60
2018-12-06T17:25:03.623Z,32.33
2018-12-06T17:27:31.270Z,30.87
2018-12-06T17:29:59.382Z,36.20
2018-12-06T17:32:27.132Z,34.43
2018-12-06T17:34:54.647Z,35.70
2018-12-06T17:37:22.138Z,30.87
2018-12-06T17:39:49.697Z,35.73
2018-12-06T17:42:17.313Z,35.63
2018-12-06T17:44:44.893Z,29.90
2018-12-06T17:47:12.634Z,33.30
2018-12-06T17:49:40.274Z,31.97
2018-12-06T17:52:07.933Z,34.20
2018-12-06T17:54:35.592Z,34.70
2018-12-06T17:57:03.244Z,34.77
2018-12-06T17:59:30.828Z,33.63
2018-12-06T18:01:58.402Z,35.80
2018-12-06T18:04:26.136Z,31.30
2018-12-06T18:06:53.883Z,32.27
2018-12-06T18:09:21.415Z,30.53
2018-12-06T18:11:48.949Z,33.70
2018-12-06T18:14:16.570Z,34.40
2018-12-06T18:16:44.164Z,32.87
2018-12-06T18:19:11.731Z,39.30
2018-12-06T18:21:39.386Z,32.20
2018-12-06T18:24:18.345Z,33.03
2018-12-06T18:26:43.590Z,32.80
2018-12-06T18:29:12.695Z,31.03
2018-12-06T18:31:40.622Z,30.53
2018-12-06T18:34:08.619Z,33.50
2018-12-06T18:36:44.115Z,37.90
2018-12-06T18:39:11.772Z,39.00
2018-12-06T18:41:39.310Z,34.30
2018-12-06T18:44:06.833Z,33.03
2018-12-06T18:46:34.513Z,33.43
2018-12-06T18:49:02.385Z,34.40
2018-12-06T18:51:30.114Z,37.90
2018-12-06T18:53:57.657Z,37.97
2018-12-06T18:56:25.302Z,35.00
2018-12-06T18:58:52.886Z,39.13
2018-12-06T19:01:20.544Z,42.23
2018-12-06T19:03:49.228Z,44.77
2018-12-06T19:06:18.639Z,39.90
2018-12-06T19:08:47.803Z,40.90
2018-12-06T19:11:17.782Z,41.83
2018-12-06T19:13:46.312Z,40.70
2018-12-06T19:16:14.778Z,44.33
2018-12-06T19:18:42.566Z,42.43
2018-12-06T19:21:11.603Z,48.20
2018-12-06T19:23:42.146Z,49.93
2018-12-06T19:26:10.883Z,49.53
2018-12-06T19:28:39.634Z,55.87
2018-12-06T19:31:07.779Z,55.70
2018-12-06T19:33:36.206Z,57.27
2018-12-06T19:36:04.430Z,51.30
2018-12-06T19:38:36.294Z,57.20
2018-12-06T19:43:53.942Z,59.97
2018-12-06T19:46:23.737Z,55.73
2018-12-06T19:51:40.690Z,67.60
2018-12-06T19:54:09.352Z,64.73
2018-12-06T19:56:39.855Z,57.17
2018-12-06T19:59:07.665Z,58.93
2018-12-06T20:01:36.254Z,62.83
2018-12-06T20:04:04.045Z,66.03
2018-12-06T20:06:31.957Z,60.63
2018-12-06T20:08:59.952Z,62.10
2018-12-06T20:11:28.450Z,61.70
2018-12-06T20:13:56.179Z,58.03
2018-12-06T20:16:26.263Z,59.60
2018-12-06T20:18:53.954Z,66.90
2018-12-06T20:21:22.340Z,57.03
2018-12-06T20:23:51.951Z,61.00
2018-12-06T20:26:21.081Z,54.23
2018-12-06T20:28:52.670Z,51.50
2018-12-06T20:31:20.950Z,57.07
2018-12-06T20:33:51.461Z,52.83
2018-12-06T20:36:21.090Z,56.27
2018-12-06T20:38:48.724Z,53.93
2018-12-06T20:41:16.373Z,49.53
2018-12-06T20:43:43.915Z,53.57
2018-12-06T20:46:12.175Z,47.60
2018-12-06T20:48:39.795Z,49.90
2018-12-06T20:51:07.371Z,53.20
2018-12-06T20:53:35.148Z,45.77
2018-12-06T20:56:03.197Z,53.27
2018-12-06T20:58:31.290Z,51.10
2018-12-06T21:00:59.174Z,41.97
2018-12-06T21:03:28.171Z,49.07
2018-12-06T21:06:02.524Z,47.73
2018-12-06T21:08:30.343Z,46.73
2018-12-06T21:10:57.983Z,49.67
2018-12-06T21:13:25.631Z,46.67
2018-12-06T21:15:55.366Z,47.20
2018-12-06T21:18:23.094Z,48.17
2018-12-06T21:20:51.141Z,47.90
2018-12-06T21:23:18.998Z,48.93
2018-12-06T21:25:46.660Z,46.00
2018-12-06T21:28:14.177Z,45.20
2018-12-06T21:30:41.842Z,48.00
2018-12-06T21:33:09.410Z,45.33
2018-12-06T21:35:37.244Z,47.43
2018-12-06T21:38:06.949Z,47.33
2018-12-06T21:40:34.581Z,46.27
2018-12-06T21:43:02.226Z,44.90
2018-12-06T21:45:29.942Z,51.67
2018-12-06T21:47:57.516Z,45.90
2018-12-06T21:50:25.175Z,54.10
2018-12-06T21:52:52.990Z,53.40
2018-12-06T21:55:20.705Z,51.63
2018-12-06T21:57:48.606Z,46.73
2018-12-06T22:00:16.299Z,54.13
2018-12-06T22:02:44.060Z,46.00
2018-12-06T22:05:11.703Z,50.73
2018-12-06T22:07:39.439Z,51.17
2018-12-06T22:10:08.106Z,48.30
2018-12-06T22:12:35.856Z,43.97
2018-12-06T22:15:04.053Z,40.63
2018-12-06T22:17:31.953Z,44.27
2018-12-06T22:19:59.595Z,44.93
2018-12-06T22:22:27.366Z,40.13
2018-12-06T22:24:55.322Z,47.80
2018-12-06T22:27:22.948Z,44.00
2018-12-06T22:29:50.644Z,44.80
2018-12-06T22:32:18.248Z,48.57
2018-12-06T22:34:46.062Z,46.80
2018-12-06T22:37:13.763Z,43.87
2018-12-06T22:39:41.619Z,45.90
2018-12-06T22:42:09.232Z,43.60
2018-12-06T22:44:36.980Z,45.87
2018-12-06T22:47:04.706Z,41.43
2018-12-06T22:49:32.307Z,40.87
2018-12-06T22:51:59.950Z,39.47
2018-12-06T22:54:28.000Z,39.10
2018-12-06T22:56:55.659Z,38.90
2018-12-06T22:59:23.417Z,38.40
2018-12-06T23:01:51.229Z,41.53
2018-12-06T23:04:19.926Z,39.30
2018-12-06T23:06:47.685Z,39.60
2018-12-06T23:09:15.444Z,37.93
2018-12-06T23:11:43.121Z,39.30
2018-12-06T23:14:11.057Z,36.67
2018-12-06T23:16:38.901Z,35.37
2018-12-06T23:19:06.839Z,35.47
2018-12-06T23:21:34.853Z,29.77
2018-12-06T23:24:02.511Z,33.83
2018-12-06T23:26:30.170Z,35.67
2018-12-06T23:28:57.784Z,32.20
2018-12-06T23:31:25.347Z,29.60
2018-12-06T23:33:53.362Z,27.43
2018-12-06T23:36:21.789Z,34.27
2018-12-06T23:38:52.447Z,26.57
2018-12-06T23:41:20.494Z,29.13
2018-12-06T23:43:48.139Z,26.03
2018-12-06T23:46:15.707Z,26.70
2018-12-06T23:48:43.946Z,23.73
2018-12-06T23:51:23.137Z,21.47
2018-12-06T23:53:50.725Z,21.37
2018-12-06T23:56:18.379Z,19.23
2018-12-06T23:58:46.074Z,17.77
